sensor_id;sensor_type;location;lat;lon;timestamp;temperature;humidity
5689;DHT22;2869;50.432;8.680;2022-11-18T00:01:35;7.50;99.90
5689;DHT22;2869;50.432;8.680;2022-11-18T00:04:02;7.50;99.90
5689;DHT22;2869;50.432;8.680;2022-11-18T00:06:29;7.50;99.90
5689;DHT22;2869;50.432;8.680;2022-11-18T00:08:57;7.50;99.90
5689;DHT22;2869;50.432;8.680;2022-11-18T00:11:26;7.50;99.90
5689;DHT22;2869;50.432;8.680;2022-11-18T00:14:13;7.60;99.90
5689;DHT22;2869;50.432;8.680;2022-11-18T00:16:49;7.60;99.90
5689;DHT22;2869;50.432;8.680;2022-11-18T00:19:16;7.60;99.90
5689;DHT22;2869;50.432;8.680;2022-11-18T00:21:43;7.60;99.90
5689;DHT22;2869;50.432;8.680;2022-11-18T00:24:10;7.60;99.90
5689;DHT22;2869;50.432;8.680;2022-11-18T00:26:38;7.60;99.90
5689;DHT22;2869;50.432;8.680;2022-11-18T00:29:04;7.60;99.90
5689;DHT22;2869;50.432;8.680;2022-11-18T00:31:31;7.60;99.90
5689;DHT22;2869;50.432;8.680;2022-11-18T00:33:58;7.60;99.90
5689;DHT22;2869;50.432;8.680;2022-11-18T00:36:24;7.70;99.90
5689;DHT22;2869;50.432;8.680;2022-11-18T00:38:51;7.70;99.90
5689;DHT22;2869;50.432;8.680;2022-11-18T00:41:18;7.70;99.90
5689;DHT22;2869;50.432;8.680;2022-11-18T00:43:46;7.70;99.90
5689;DHT22;2869;50.432;8.680;2022-11-18T00:46:12;7.60;99.90
5689;DHT22;2869;50.432;8.680;2022-11-18T00:48:39;7.60;99.90
5689;DHT22;2869;50.432;8.680;2022-11-18T00:51:11;7.60;99.90
5689;DHT22;2869;50.432;8.680;2022-11-18T00:53:38;7.70;99.90
5689;DHT22;2869;50.432;8.680;2022-11-18T00:56:06;7.70;99.90
5689;DHT22;2869;50.432;8.680;2022-11-18T00:58:33;7.70;99.90
5689;DHT22;2869;50.432;8.680;2022-11-18T01:01:02;7.70;99.90
5689;DHT22;2869;50.432;8.680;2022-11-18T01:03:29;7.70;99.90
5689;DHT22;2869;50.432;8.680;2022-11-18T01:05:56;7.70;99.90
5689;DHT22;2869;50.432;8.680;2022-11-18T01:08:23;7.70;99.90
5689;DHT22;2869;50.432;8.680;2022-11-18T01:10:50;7.80;99.90
5689;DHT22;2869;50.432;8.680;2022-11-18T01:13:19;7.70;99.90
5689;DHT22;2869;50.432;8.680;2022-11-18T01:15:47;7.70;99.90
5689;DHT22;2869;50.432;8.680;2022-11-18T01:18:15;7.80;99.90
5689;DHT22;2869;50.432;8.680;2022-11-18T01:20:42;7.80;99.90
5689;DHT22;2869;50.432;8.680;2022-11-18T01:23:09;7.80;99.90
5689;DHT22;2869;50.432;8.680;2022-11-18T01:25:37;7.80;99.90
5689;DHT22;2869;50.432;8.680;2022-11-18T01:28:05;7.80;99.90
5689;DHT22;2869;50.432;8.680;2022-11-18T01:30:33;7.80;99.90
5689;DHT22;2869;50.432;8.680;2022-11-18T01:33:00;7.80;99.90
5689;DHT22;2869;50.432;8.680;2022-11-18T01:35:28;7.80;99.90
5689;DHT22;2869;50.432;8.680;2022-11-18T01:37:55;7.80;99.90
5689;DHT22;2869;50.432;8.680;2022-11-18T01:40:21;7.80;99.90
5689;DHT22;2869;50.432;8.680;2022-11-18T01:42:48;7.90;99.90
5689;DHT22;2869;50.432;8.680;2022-11-18T01:45:30;7.80;99.90
5689;DHT22;2869;50.432;8.680;2022-11-18T01:48:01;7.80;99.90
5689;DHT22;2869;50.432;8.680;2022-11-18T01:50:31;7.80;99.90
5689;DHT22;2869;50.432;8.680;2022-11-18T01:53:03;7.80;99.90
5689;DHT22;2869;50.432;8.680;2022-11-18T01:55:34;7.90;99.90
5689;DHT22;2869;50.432;8.680;2022-11-18T01:58:06;7.90;99.90
5689;DHT22;2869;50.432;8.680;2022-11-18T02:00:35;7.90;99.90
5689;DHT22;2869;50.432;8.680;2022-11-18T02:03:02;7.90;99.90
5689;DHT22;2869;50.432;8.680;2022-11-18T02:05:31;7.90;99.90
5689;DHT22;2869;50.432;8.680;2022-11-18T02:07:59;7.90;99.90
5689;DHT22;2869;50.432;8.680;2022-11-18T02:10:27;7.90;99.90
5689;DHT22;2869;50.432;8.680;2022-11-18T02:12:54;7.80;99.90
5689;DHT22;2869;50.432;8.680;2022-11-18T02:15:29;7.80;99.90
5689;DHT22;2869;50.432;8.680;2022-11-18T02:18:04;7.80;99.90
5689;DHT22;2869;50.432;8.680;2022-11-18T02:20:37;7.70;99.90
5689;DHT22;2869;50.432;8.680;2022-11-18T02:23:32;7.70;99.90
5689;DHT22;2869;50.432;8.680;2022-11-18T02:29:23;7.80;99.90
5689;DHT22;2869;50.432;8.680;2022-11-18T02:31:56;7.80;99.90
5689;DHT22;2869;50.432;8.680;2022-11-18T02:34:32;7.80;99.90
5689;DHT22;2869;50.432;8.680;2022-11-18T02:37:05;7.80;99.90
5689;DHT22;2869;50.432;8.680;2022-11-18T02:39:37;7.80;99.90
5689;DHT22;2869;50.432;8.680;2022-11-18T02:42:07;7.80;99.90
5689;DHT22;2869;50.432;8.680;2022-11-18T02:44:39;7.90;99.90
5689;DHT22;2869;50.432;8.680;2022-11-18T02:47:10;7.90;99.90
5689;DHT22;2869;50.432;8.680;2022-11-18T02:49:42;7.90;99.90
5689;DHT22;2869;50.432;8.680;2022-11-18T02:52:11;7.90;99.90
5689;DHT22;2869;50.432;8.680;2022-11-18T02:54:40;7.90;99.90
5689;DHT22;2869;50.432;8.680;2022-11-18T02:57:09;7.90;99.90
5689;DHT22;2869;50.432;8.680;2022-11-18T02:59:38;7.90;99.90
5689;DHT22;2869;50.432;8.680;2022-11-18T03:02:05;7.90;99.90
5689;DHT22;2869;50.432;8.680;2022-11-18T03:04:32;7.90;99.90
5689;DHT22;2869;50.432;8.680;2022-11-18T03:07:05;7.90;99.90
5689;DHT22;2869;50.432;8.680;2022-11-18T03:09:37;7.90;99.90
5689;DHT22;2869;50.432;8.680;2022-11-18T03:12:11;7.80;99.90
5689;DHT22;2869;50.432;8.680;2022-11-18T03:14:47;7.80;99.90
5689;DHT22;2869;50.432;8.680;2022-11-18T03:17:20;7.80;99.90
5689;DHT22;2869;50.432;8.680;2022-11-18T03:19:58;7.70;99.90
5689;DHT22;2869;50.432;8.680;2022-11-18T03:22:31;7.70;99.90
5689;DHT22;2869;50.432;8.680;2022-11-18T03:25:03;7.70;99.90
5689;DHT22;2869;50.432;8.680;2022-11-18T03:27:33;7.70;99.90
5689;DHT22;2869;50.432;8.680;2022-11-18T03:30:06;7.70;99.90
5689;DHT22;2869;50.432;8.680;2022-11-18T03:32:38;7.70;99.90
5689;DHT22;2869;50.432;8.680;2022-11-18T03:35:08;7.70;99.90
5689;DHT22;2869;50.432;8.680;2022-11-18T03:37:37;7.70;99.90
5689;DHT22;2869;50.432;8.680;2022-11-18T03:40:12;7.70;99.90
5689;DHT22;2869;50.432;8.680;2022-11-18T03:42:42;7.70;99.90
5689;DHT22;2869;50.432;8.680;2022-11-18T03:45:13;7.70;99.90
5689;DHT22;2869;50.432;8.680;2022-11-18T03:47:46;7.70;99.90
5689;DHT22;2869;50.432;8.680;2022-11-18T03:50:19;7.70;99.90
5689;DHT22;2869;50.432;8.680;2022-11-18T03:52:48;7.70;99.90
5689;DHT22;2869;50.432;8.680;2022-11-18T03:55:18;7.70;99.90
5689;DHT22;2869;50.432;8.680;2022-11-18T03:57:50;7.70;99.90
5689;DHT22;2869;50.432;8.680;2022-11-18T04:00:21;7.70;99.90
5689;DHT22;2869;50.432;8.680;2022-11-18T04:02:49;7.60;99.90
5689;DHT22;2869;50.432;8.680;2022-11-18T04:05:16;7.60;99.90
5689;DHT22;2869;50.432;8.680;2022-11-18T04:07:52;7.50;99.90
5689;DHT22;2869;50.432;8.680;2022-11-18T04:10:23;7.50;99.90
5689;DHT22;2869;50.432;8.680;2022-11-18T04:12:55;7.50;99.90
5689;DHT22;2869;50.432;8.680;2022-11-18T04:15:25;7.40;99.90
5689;DHT22;2869;50.432;8.680;2022-11-18T04:17:51;7.40;99.90
5689;DHT22;2869;50.432;8.680;2022-11-18T04:20:19;7.40;99.90
5689;DHT22;2869;50.432;8.680;2022-11-18T04:22:46;7.40;99.90
5689;DHT22;2869;50.432;8.680;2022-11-18T04:25:13;7.40;99.90
5689;DHT22;2869;50.432;8.680;2022-11-18T04:27:40;7.40;99.90
5689;DHT22;2869;50.432;8.680;2022-11-18T04:30:08;7.30;99.90
5689;DHT22;2869;50.432;8.680;2022-11-18T04:32:36;7.30;99.90
5689;DHT22;2869;50.432;8.680;2022-11-18T04:35:03;7.30;99.90
5689;DHT22;2869;50.432;8.680;2022-11-18T04:37:30;7.20;99.90
5689;DHT22;2869;50.432;8.680;2022-11-18T04:39:57;7.20;99.90
5689;DHT22;2869;50.432;8.680;2022-11-18T04:42:23;7.20;99.90
5689;DHT22;2869;50.432;8.680;2022-11-18T04:44:50;7.20;99.90
5689;DHT22;2869;50.432;8.680;2022-11-18T04:47:17;7.20;99.90
5689;DHT22;2869;50.432;8.680;2022-11-18T04:49:45;7.10;99.90
5689;DHT22;2869;50.432;8.680;2022-11-18T04:52:11;7.10;99.90
5689;DHT22;2869;50.432;8.680;2022-11-18T04:54:38;7.10;99.90
5689;DHT22;2869;50.432;8.680;2022-11-18T04:57:05;7.10;99.90
5689;DHT22;2869;50.432;8.680;2022-11-18T04:59:32;7.10;99.90
5689;DHT22;2869;50.432;8.680;2022-11-18T05:01:58;7.20;99.90
5689;DHT22;2869;50.432;8.680;2022-11-18T05:04:28;7.20;99.90
5689;DHT22;2869;50.432;8.680;2022-11-18T05:06:57;7.20;99.90
5689;DHT22;2869;50.432;8.680;2022-11-18T05:09:25;7.10;99.90
5689;DHT22;2869;50.432;8.680;2022-11-18T05:11:52;7.10;99.90
5689;DHT22;2869;50.432;8.680;2022-11-18T05:14:37;7.10;99.90
5689;DHT22;2869;50.432;8.680;2022-11-18T05:17:05;7.10;99.90
5689;DHT22;2869;50.432;8.680;2022-11-18T05:19:32;7.10;99.90
5689;DHT22;2869;50.432;8.680;2022-11-18T05:22:01;7.10;99.90
5689;DHT22;2869;50.432;8.680;2022-11-18T05:24:27;7.10;99.90
5689;DHT22;2869;50.432;8.680;2022-11-18T05:26:54;7.10;99.90
5689;DHT22;2869;50.432;8.680;2022-11-18T05:29:21;7.10;99.90
5689;DHT22;2869;50.432;8.680;2022-11-18T05:31:48;7.10;99.90
5689;DHT22;2869;50.432;8.680;2022-11-18T05:34:16;7.00;99.90
5689;DHT22;2869;50.432;8.680;2022-11-18T05:36:43;7.00;99.90
5689;DHT22;2869;50.432;8.680;2022-11-18T05:39:11;7.00;99.90
5689;DHT22;2869;50.432;8.680;2022-11-18T05:41:37;7.00;99.90
5689;DHT22;2869;50.432;8.680;2022-11-18T05:44:22;7.00;99.90
5689;DHT22;2869;50.432;8.680;2022-11-18T05:46:48;7.00;99.90
5689;DHT22;2869;50.432;8.680;2022-11-18T05:49:15;7.00;99.90
5689;DHT22;2869;50.432;8.680;2022-11-18T05:51:42;7.00;99.90
5689;DHT22;2869;50.432;8.680;2022-11-18T05:54:10;7.10;99.90
5689;DHT22;2869;50.432;8.680;2022-11-18T05:56:41;7.00;99.90
5689;DHT22;2869;50.432;8.680;2022-11-18T05:59:09;7.10;99.90
5689;DHT22;2869;50.432;8.680;2022-11-18T06:01:39;7.10;99.90
5689;DHT22;2869;50.432;8.680;2022-11-18T06:04:10;7.10;99.90
5689;DHT22;2869;50.432;8.680;2022-11-18T06:06:38;7.10;99.90
5689;DHT22;2869;50.432;8.680;2022-11-18T06:09:06;7.20;99.90
5689;DHT22;2869;50.432;8.680;2022-11-18T06:11:38;7.20;99.90
5689;DHT22;2869;50.432;8.680;2022-11-18T06:14:10;7.20;99.90
5689;DHT22;2869;50.432;8.680;2022-11-18T06:16:39;7.20;99.90
5689;DHT22;2869;50.432;8.680;2022-11-18T06:19:09;7.20;99.90
5689;DHT22;2869;50.432;8.680;2022-11-18T06:21:36;7.20;99.90
5689;DHT22;2869;50.432;8.680;2022-11-18T06:24:03;7.20;99.90
5689;DHT22;2869;50.432;8.680;2022-11-18T06:26:31;7.20;99.90
5689;DHT22;2869;50.432;8.680;2022-11-18T06:28:59;7.30;99.90
5689;DHT22;2869;50.432;8.680;2022-11-18T06:31:26;7.30;99.90
5689;DHT22;2869;50.432;8.680;2022-11-18T06:33:52;7.30;99.90
5689;DHT22;2869;50.432;8.680;2022-11-18T06:36:20;7.30;99.90
5689;DHT22;2869;50.432;8.680;2022-11-18T06:38:46;7.30;99.90
5689;DHT22;2869;50.432;8.680;2022-11-18T06:41:13;7.20;99.90
5689;DHT22;2869;50.432;8.680;2022-11-18T06:43:40;7.20;99.90
5689;DHT22;2869;50.432;8.680;2022-11-18T06:46:09;7.20;99.90
5689;DHT22;2869;50.432;8.680;2022-11-18T06:48:54;7.20;99.90
5689;DHT22;2869;50.432;8.680;2022-11-18T06:51:21;7.30;99.90
5689;DHT22;2869;50.432;8.680;2022-11-18T06:53:48;7.20;99.90
5689;DHT22;2869;50.432;8.680;2022-11-18T06:56:16;7.20;99.90
5689;DHT22;2869;50.432;8.680;2022-11-18T06:58:44;7.20;99.90
5689;DHT22;2869;50.432;8.680;2022-11-18T07:01:13;7.20;99.90
5689;DHT22;2869;50.432;8.680;2022-11-18T07:03:41;7.20;99.90
5689;DHT22;2869;50.432;8.680;2022-11-18T07:06:09;7.20;99.90
5689;DHT22;2869;50.432;8.680;2022-11-18T07:08:37;7.20;99.90
5689;DHT22;2869;50.432;8.680;2022-11-18T07:11:05;7.20;99.90
5689;DHT22;2869;50.432;8.680;2022-11-18T07:13:32;7.20;99.90
5689;DHT22;2869;50.432;8.680;2022-11-18T07:16:03;7.30;99.90
5689;DHT22;2869;50.432;8.680;2022-11-18T07:18:32;7.30;99.90
5689;DHT22;2869;50.432;8.680;2022-11-18T07:21:03;7.30;99.90
5689;DHT22;2869;50.432;8.680;2022-11-18T07:23:31;7.30;99.90
5689;DHT22;2869;50.432;8.680;2022-11-18T07:25:58;7.40;99.90
5689;DHT22;2869;50.432;8.680;2022-11-18T07:28:25;7.40;99.90
5689;DHT22;2869;50.432;8.680;2022-11-18T07:30:52;7.40;99.90
5689;DHT22;2869;50.432;8.680;2022-11-18T07:33:19;7.40;99.90
5689;DHT22;2869;50.432;8.680;2022-11-18T07:35:48;7.40;99.90
5689;DHT22;2869;50.432;8.680;2022-11-18T07:38:15;7.40;99.90
5689;DHT22;2869;50.432;8.680;2022-11-18T07:40:41;7.40;99.90
5689;DHT22;2869;50.432;8.680;2022-11-18T07:43:08;7.40;99.90
5689;DHT22;2869;50.432;8.680;2022-11-18T07:45:35;7.40;99.90
5689;DHT22;2869;50.432;8.680;2022-11-18T07:48:02;7.50;99.90
5689;DHT22;2869;50.432;8.680;2022-11-18T07:50:29;7.50;99.90
5689;DHT22;2869;50.432;8.680;2022-11-18T07:52:57;7.50;99.90
5689;DHT22;2869;50.432;8.680;2022-11-18T07:55:24;7.60;99.90
5689;DHT22;2869;50.432;8.680;2022-11-18T07:57:51;7.60;99.90
5689;DHT22;2869;50.432;8.680;2022-11-18T08:00:18;7.70;99.90
5689;DHT22;2869;50.432;8.680;2022-11-18T08:02:49;7.70;99.90
5689;DHT22;2869;50.432;8.680;2022-11-18T08:05:16;7.80;99.90
5689;DHT22;2869;50.432;8.680;2022-11-18T08:07:43;7.80;99.90
5689;DHT22;2869;50.432;8.680;2022-11-18T08:10:11;7.90;99.90
5689;DHT22;2869;50.432;8.680;2022-11-18T08:12:37;8.00;99.90
5689;DHT22;2869;50.432;8.680;2022-11-18T08:15:05;8.00;99.90
5689;DHT22;2869;50.432;8.680;2022-11-18T08:17:31;8.10;99.90
5689;DHT22;2869;50.432;8.680;2022-11-18T08:19:58;8.20;99.90
5689;DHT22;2869;50.432;8.680;2022-11-18T08:22:25;8.20;99.90
5689;DHT22;2869;50.432;8.680;2022-11-18T08:24:52;8.30;99.90
5689;DHT22;2869;50.432;8.680;2022-11-18T08:27:20;8.40;99.90
5689;DHT22;2869;50.432;8.680;2022-11-18T08:29:46;8.50;99.90
5689;DHT22;2869;50.432;8.680;2022-11-18T08:32:13;8.50;99.90
5689;DHT22;2869;50.432;8.680;2022-11-18T08:34:40;8.50;99.90
5689;DHT22;2869;50.432;8.680;2022-11-18T08:37:06;8.60;99.90
5689;DHT22;2869;50.432;8.680;2022-11-18T08:39:33;8.80;99.90
5689;DHT22;2869;50.432;8.680;2022-11-18T08:42:00;9.00;99.90
5689;DHT22;2869;50.432;8.680;2022-11-18T08:44:28;9.10;99.90
5689;DHT22;2869;50.432;8.680;2022-11-18T08:46:57;9.20;99.90
5689;DHT22;2869;50.432;8.680;2022-11-18T08:49:24;9.20;99.90
5689;DHT22;2869;50.432;8.680;2022-11-18T08:51:51;9.30;99.90
5689;DHT22;2869;50.432;8.680;2022-11-18T08:54:17;9.30;99.90
5689;DHT22;2869;50.432;8.680;2022-11-18T08:56:44;9.40;99.90
5689;DHT22;2869;50.432;8.680;2022-11-18T08:59:11;9.80;99.90
5689;DHT22;2869;50.432;8.680;2022-11-18T09:01:39;10.30;99.90
5689;DHT22;2869;50.432;8.680;2022-11-18T09:04:08;10.70;99.90
5689;DHT22;2869;50.432;8.680;2022-11-18T09:06:34;11.00;99.90
5689;DHT22;2869;50.432;8.680;2022-11-18T09:09:03;11.40;99.90
5689;DHT22;2869;50.432;8.680;2022-11-18T09:11:29;11.40;99.90
5689;DHT22;2869;50.432;8.680;2022-11-18T09:13:57;11.30;99.90
5689;DHT22;2869;50.432;8.680;2022-11-18T09:16:25;10.90;99.90
5689;DHT22;2869;50.432;8.680;2022-11-18T09:18:54;10.50;99.90
5689;DHT22;2869;50.432;8.680;2022-11-18T09:21:21;10.20;99.90
5689;DHT22;2869;50.432;8.680;2022-11-18T09:23:48;9.90;99.90
5689;DHT22;2869;50.432;8.680;2022-11-18T09:26:18;9.70;99.90
5689;DHT22;2869;50.432;8.680;2022-11-18T09:28:45;9.60;99.90
5689;DHT22;2869;50.432;8.680;2022-11-18T09:31:14;9.40;99.90
5689;DHT22;2869;50.432;8.680;2022-11-18T09:33:41;9.30;99.90
5689;DHT22;2869;50.432;8.680;2022-11-18T09:36:12;9.30;99.90
5689;DHT22;2869;50.432;8.680;2022-11-18T09:38:40;9.30;99.90
5689;DHT22;2869;50.432;8.680;2022-11-18T09:41:19;9.40;99.90
5689;DHT22;2869;50.432;8.680;2022-11-18T09:43:55;9.40;99.90
5689;DHT22;2869;50.432;8.680;2022-11-18T09:46:30;9.60;99.90
5689;DHT22;2869;50.432;8.680;2022-11-18T09:49:02;9.60;99.90
5689;DHT22;2869;50.432;8.680;2022-11-18T09:51:42;9.60;99.90
5689;DHT22;2869;50.432;8.680;2022-11-18T09:54:10;9.60;99.90
5689;DHT22;2869;50.432;8.680;2022-11-18T09:56:40;9.70;99.90
5689;DHT22;2869;50.432;8.680;2022-11-18T09:59:10;9.90;99.90
5689;DHT22;2869;50.432;8.680;2022-11-18T10:01:39;10.00;99.90
5689;DHT22;2869;50.432;8.680;2022-11-18T10:04:12;10.20;99.90
5689;DHT22;2869;50.432;8.680;2022-11-18T10:06:40;10.40;99.90
5689;DHT22;2869;50.432;8.680;2022-11-18T10:09:24;10.70;99.90
5689;DHT22;2869;50.432;8.680;2022-11-18T10:12:11;11.00;99.90
5689;DHT22;2869;50.432;8.680;2022-11-18T10:14:55;11.40;99.90
5689;DHT22;2869;50.432;8.680;2022-11-18T10:17:34;12.00;99.90
5689;DHT22;2869;50.432;8.680;2022-11-18T10:20:16;12.50;99.90
5689;DHT22;2869;50.432;8.680;2022-11-18T10:22:50;13.00;99.90
5689;DHT22;2869;50.432;8.680;2022-11-18T10:25:18;13.00;99.90
5689;DHT22;2869;50.432;8.680;2022-11-18T10:27:46;12.90;99.90
5689;DHT22;2869;50.432;8.680;2022-11-18T10:30:15;12.50;99.90
5689;DHT22;2869;50.432;8.680;2022-11-18T10:32:56;12.40;99.90
5689;DHT22;2869;50.432;8.680;2022-11-18T10:35:27;12.70;99.90
5689;DHT22;2869;50.432;8.680;2022-11-18T10:38:04;12.50;99.90
5689;DHT22;2869;50.432;8.680;2022-11-18T10:40:32;12.40;99.90
5689;DHT22;2869;50.432;8.680;2022-11-18T10:42:59;12.30;99.90
5689;DHT22;2869;50.432;8.680;2022-11-18T10:45:28;12.20;99.90
5689;DHT22;2869;50.432;8.680;2022-11-18T10:48:06;11.90;99.90
5689;DHT22;2869;50.432;8.680;2022-11-18T10:50:35;11.70;99.90
5689;DHT22;2869;50.432;8.680;2022-11-18T10:53:05;11.50;99.90
5689;DHT22;2869;50.432;8.680;2022-11-18T10:55:32;11.50;99.90
5689;DHT22;2869;50.432;8.680;2022-11-18T10:58:08;11.50;99.90
5689;DHT22;2869;50.432;8.680;2022-11-18T11:00:43;11.40;99.90
5689;DHT22;2869;50.432;8.680;2022-11-18T11:03:21;11.20;99.90
5689;DHT22;2869;50.432;8.680;2022-11-18T11:06:03;11.00;99.90
5689;DHT22;2869;50.432;8.680;2022-11-18T11:08:47;10.80;99.90
5689;DHT22;2869;50.432;8.680;2022-11-18T11:11:21;10.60;99.90
5689;DHT22;2869;50.432;8.680;2022-11-18T11:13:52;10.60;99.90
5689;DHT22;2869;50.432;8.680;2022-11-18T11:16:20;10.50;99.90
5689;DHT22;2869;50.432;8.680;2022-11-18T11:18:51;10.50;99.90
5689;DHT22;2869;50.432;8.680;2022-11-18T11:21:20;10.40;99.90
5689;DHT22;2869;50.432;8.680;2022-11-18T11:23:50;10.40;99.90
5689;DHT22;2869;50.432;8.680;2022-11-18T11:26:23;10.30;99.90
5689;DHT22;2869;50.432;8.680;2022-11-18T11:28:57;10.30;99.90
5689;DHT22;2869;50.432;8.680;2022-11-18T11:31:30;10.20;99.90
5689;DHT22;2869;50.432;8.680;2022-11-18T11:34:05;10.20;99.90
5689;DHT22;2869;50.432;8.680;2022-11-18T11:36:42;10.20;99.90
5689;DHT22;2869;50.432;8.680;2022-11-18T11:39:45;10.20;99.90
5689;DHT22;2869;50.432;8.680;2022-11-18T11:42:24;10.30;99.90
5689;DHT22;2869;50.432;8.680;2022-11-18T11:45:06;10.40;99.90
5689;DHT22;2869;50.432;8.680;2022-11-18T11:47:53;10.40;99.90
5689;DHT22;2869;50.432;8.680;2022-11-18T11:50:26;10.50;99.90
5689;DHT22;2869;50.432;8.680;2022-11-18T11:53:08;10.60;99.90
5689;DHT22;2869;50.432;8.680;2022-11-18T11:55:52;10.70;99.90
5689;DHT22;2869;50.432;8.680;2022-11-18T11:58:32;10.90;99.90
5689;DHT22;2869;50.432;8.680;2022-11-18T12:01:13;11.00;99.90
5689;DHT22;2869;50.432;8.680;2022-11-18T12:03:45;11.00;99.90
5689;DHT22;2869;50.432;8.680;2022-11-18T12:06:13;11.00;99.90
5689;DHT22;2869;50.432;8.680;2022-11-18T12:08:55;10.90;99.90
5689;DHT22;2869;50.432;8.680;2022-11-18T12:11:30;10.90;99.90
5689;DHT22;2869;50.432;8.680;2022-11-18T12:14:01;10.80;99.90
5689;DHT22;2869;50.432;8.680;2022-11-18T12:16:33;10.70;99.90
5689;DHT22;2869;50.432;8.680;2022-11-18T12:19:07;10.70;99.90
5689;DHT22;2869;50.432;8.680;2022-11-18T12:22:07;10.70;99.90
5689;DHT22;2869;50.432;8.680;2022-11-18T12:24:36;10.90;99.90
5689;DHT22;2869;50.432;8.680;2022-11-18T12:27:12;11.10;99.90
5689;DHT22;2869;50.432;8.680;2022-11-18T12:29:52;11.20;99.90
5689;DHT22;2869;50.432;8.680;2022-11-18T12:32:28;11.20;99.90
5689;DHT22;2869;50.432;8.680;2022-11-18T12:34:58;11.20;99.90
5689;DHT22;2869;50.432;8.680;2022-11-18T12:37:44;11.20;99.90
5689;DHT22;2869;50.432;8.680;2022-11-18T12:40:32;11.20;99.90
5689;DHT22;2869;50.432;8.680;2022-11-18T12:43:02;11.10;99.90
5689;DHT22;2869;50.432;8.680;2022-11-18T12:45:49;11.10;99.90
5689;DHT22;2869;50.432;8.680;2022-11-18T12:48:37;11.10;99.90
5689;DHT22;2869;50.432;8.680;2022-11-18T12:54:29;11.20;99.90
5689;DHT22;2869;50.432;8.680;2022-11-18T12:56:58;11.30;99.90
5689;DHT22;2869;50.432;8.680;2022-11-18T12:59:28;11.20;99.90
5689;DHT22;2869;50.432;8.680;2022-11-18T13:02:03;11.30;99.90
5689;DHT22;2869;50.432;8.680;2022-11-18T13:04:31;11.30;99.90
5689;DHT22;2869;50.432;8.680;2022-11-18T13:06:58;11.30;99.90
5689;DHT22;2869;50.432;8.680;2022-11-18T13:09:27;11.30;99.90
5689;DHT22;2869;50.432;8.680;2022-11-18T13:11:57;11.40;99.90
5689;DHT22;2869;50.432;8.680;2022-11-18T13:14:29;11.60;99.90
5689;DHT22;2869;50.432;8.680;2022-11-18T13:17:25;12.00;99.90
5689;DHT22;2869;50.432;8.680;2022-11-18T13:20:21;12.10;99.90
5689;DHT22;2869;50.432;8.680;2022-11-18T13:22:49;12.10;99.90
5689;DHT22;2869;50.432;8.680;2022-11-18T13:25:33;12.00;99.90
5689;DHT22;2869;50.432;8.680;2022-11-18T13:28:08;11.80;99.90
5689;DHT22;2869;50.432;8.680;2022-11-18T13:30:45;11.70;99.90
5689;DHT22;2869;50.432;8.680;2022-11-18T13:33:14;11.40;99.90
5689;DHT22;2869;50.432;8.680;2022-11-18T13:35:40;11.20;99.90
5689;DHT22;2869;50.432;8.680;2022-11-18T13:38:18;11.10;99.90
5689;DHT22;2869;50.432;8.680;2022-11-18T13:40:46;10.90;99.90
5689;DHT22;2869;50.432;8.680;2022-11-18T13:43:29;10.80;99.90
5689;DHT22;2869;50.432;8.680;2022-11-18T13:45:58;10.70;99.90
5689;DHT22;2869;50.432;8.680;2022-11-18T13:48:25;10.60;99.90
5689;DHT22;2869;50.432;8.680;2022-11-18T13:50:53;10.50;99.90
5689;DHT22;2869;50.432;8.680;2022-11-18T13:53:27;10.40;99.90
5689;DHT22;2869;50.432;8.680;2022-11-18T13:55:57;10.30;99.90
5689;DHT22;2869;50.432;8.680;2022-11-18T13:58:32;10.30;99.90
5689;DHT22;2869;50.432;8.680;2022-11-18T14:01:02;10.20;99.90
5689;DHT22;2869;50.432;8.680;2022-11-18T14:03:32;10.20;99.90
5689;DHT22;2869;50.432;8.680;2022-11-18T14:06:01;10.30;99.90
5689;DHT22;2869;50.432;8.680;2022-11-18T14:08:29;10.30;99.90
5689;DHT22;2869;50.432;8.680;2022-11-18T14:10:56;10.40;99.90
5689;DHT22;2869;50.432;8.680;2022-11-18T14:13:27;10.50;99.90
5689;DHT22;2869;50.432;8.680;2022-11-18T14:15:56;10.60;99.90
5689;DHT22;2869;50.432;8.680;2022-11-18T14:18:30;10.70;99.90
5689;DHT22;2869;50.432;8.680;2022-11-18T14:20:58;10.70;99.90
5689;DHT22;2869;50.432;8.680;2022-11-18T14:23:28;10.80;99.90
5689;DHT22;2869;50.432;8.680;2022-11-18T14:25:55;10.70;99.90
5689;DHT22;2869;50.432;8.680;2022-11-18T14:28:25;10.70;99.90
5689;DHT22;2869;50.432;8.680;2022-11-18T14:31:01;10.70;99.90
5689;DHT22;2869;50.432;8.680;2022-11-18T14:33:30;10.70;99.90
5689;DHT22;2869;50.432;8.680;2022-11-18T14:35:58;10.60;99.90
5689;DHT22;2869;50.432;8.680;2022-11-18T14:38:31;10.60;99.90
5689;DHT22;2869;50.432;8.680;2022-11-18T14:41:03;10.50;99.90
5689;DHT22;2869;50.432;8.680;2022-11-18T14:43:30;10.50;99.90
5689;DHT22;2869;50.432;8.680;2022-11-18T14:45:59;10.40;99.90
5689;DHT22;2869;50.432;8.680;2022-11-18T14:48:27;10.40;99.90
5689;DHT22;2869;50.432;8.680;2022-11-18T14:50:56;10.30;99.90
5689;DHT22;2869;50.432;8.680;2022-11-18T14:53:23;10.20;99.90
5689;DHT22;2869;50.432;8.680;2022-11-18T14:55:51;10.20;99.90
5689;DHT22;2869;50.432;8.680;2022-11-18T14:58:19;10.10;99.90
5689;DHT22;2869;50.432;8.680;2022-11-18T15:00:47;10.00;99.90
5689;DHT22;2869;50.432;8.680;2022-11-18T15:03:14;10.00;99.90
5689;DHT22;2869;50.432;8.680;2022-11-18T15:05:41;9.90;99.90
5689;DHT22;2869;50.432;8.680;2022-11-18T15:08:09;9.80;99.90
5689;DHT22;2869;50.432;8.680;2022-11-18T15:10:36;9.70;99.90
5689;DHT22;2869;50.432;8.680;2022-11-18T15:13:03;9.60;99.90
5689;DHT22;2869;50.432;8.680;2022-11-18T15:15:30;9.50;99.90
5689;DHT22;2869;50.432;8.680;2022-11-18T15:17:56;9.50;99.90
5689;DHT22;2869;50.432;8.680;2022-11-18T15:20:23;9.40;99.90
5689;DHT22;2869;50.432;8.680;2022-11-18T15:22:50;9.40;99.90
5689;DHT22;2869;50.432;8.680;2022-11-18T15:25:18;9.40;99.90
5689;DHT22;2869;50.432;8.680;2022-11-18T15:27:44;9.30;99.90
5689;DHT22;2869;50.432;8.680;2022-11-18T15:30:12;9.30;99.90
5689;DHT22;2869;50.432;8.680;2022-11-18T15:32:40;9.20;99.90
5689;DHT22;2869;50.432;8.680;2022-11-18T15:35:09;9.10;99.90
5689;DHT22;2869;50.432;8.680;2022-11-18T15:37:36;9.10;99.90
5689;DHT22;2869;50.432;8.680;2022-11-18T15:40:03;9.00;99.90
5689;DHT22;2869;50.432;8.680;2022-11-18T15:42:31;8.90;99.90
5689;DHT22;2869;50.432;8.680;2022-11-18T15:44:58;8.90;99.90
5689;DHT22;2869;50.432;8.680;2022-11-18T15:47:24;8.80;99.90
5689;DHT22;2869;50.432;8.680;2022-11-18T15:49:51;8.70;99.90
5689;DHT22;2869;50.432;8.680;2022-11-18T15:52:18;8.60;99.90
5689;DHT22;2869;50.432;8.680;2022-11-18T15:54:44;8.60;99.90
5689;DHT22;2869;50.432;8.680;2022-11-18T15:57:11;8.50;99.90
5689;DHT22;2869;50.432;8.680;2022-11-18T15:59:39;8.50;99.90
5689;DHT22;2869;50.432;8.680;2022-11-18T16:02:08;8.40;99.90
5689;DHT22;2869;50.432;8.680;2022-11-18T16:04:35;8.40;99.90
5689;DHT22;2869;50.432;8.680;2022-11-18T16:07:02;8.40;99.90
5689;DHT22;2869;50.432;8.680;2022-11-18T16:09:29;8.30;99.90
5689;DHT22;2869;50.432;8.680;2022-11-18T16:12:15;8.30;99.90
5689;DHT22;2869;50.432;8.680;2022-11-18T16:15:01;8.20;99.90
5689;DHT22;2869;50.432;8.680;2022-11-18T16:17:45;8.20;99.90
5689;DHT22;2869;50.432;8.680;2022-11-18T16:20:12;8.20;99.90
5689;DHT22;2869;50.432;8.680;2022-11-18T16:22:38;8.20;99.90
5689;DHT22;2869;50.432;8.680;2022-11-18T16:25:05;8.10;99.90
5689;DHT22;2869;50.432;8.680;2022-11-18T16:27:34;8.10;99.90
5689;DHT22;2869;50.432;8.680;2022-11-18T16:30:02;8.10;99.90
5689;DHT22;2869;50.432;8.680;2022-11-18T16:32:29;8.00;99.90
5689;DHT22;2869;50.432;8.680;2022-11-18T16:34:56;7.90;99.90
5689;DHT22;2869;50.432;8.680;2022-11-18T16:37:24;7.90;99.90
5689;DHT22;2869;50.432;8.680;2022-11-18T16:39:50;7.80;99.90